Time;durP1;ratioP1;P1;durP2;ratioP2;P2;SDS_P1;SDS_P2;PMS_P1;PMS_P2;Temp;Humidity;BMP_temperature;BMP_pressure;BME280_temperature;BME280_humidity;BME280_pressure;Samples;Min_cycle;Max_cycle;Signal;HPM_P1;HPM_P2
2021/08/11 00:01:44;;;;;;;41.33;23.30;;;16.50;99.90;;;;;;5092173;28;20020;-61
2021/08/11 00:04:09;;;;;;;37.25;24.27;;;16.50;99.90;;;;;;5090272;28;20023;-60
2021/08/11 00:06:35;;;;;;;46.47;25.77;;;16.50;99.90;;;;;;5075286;28;20618;-58
2021/08/11 00:09:03;;;;;;;42.15;25.38;;;16.40;99.90;;;;;;5079017;28;20039;-60
2021/08/11 00:11:30;;;;;;;46.33;25.25;;;16.40;99.90;;;;;;5085090;28;20024;-60
2021/08/11 00:13:56;;;;;;;43.85;25.40;;;16.40;99.90;;;;;;5084343;28;20073;-60
2021/08/11 00:16:22;;;;;;;45.58;26.05;;;16.30;99.90;;;;;;5093551;28;20036;-58
2021/08/11 00:18:47;;;;;;;44.22;27.13;;;16.30;99.90;;;;;;5086351;28;20032;-58
2021/08/11 00:21:13;;;;;;;53.00;26.83;;;16.20;99.90;;;;;;5074864;28;20700;-60
2021/08/11 00:23:39;;;;;;;44.80;25.70;;;16.20;99.90;;;;;;5088246;28;20024;-59
2021/08/11 00:26:04;;;;;;;41.40;25.50;;;16.10;99.90;;;;;;5077177;28;20403;-58
2021/08/11 00:28:30;;;;;;;45.65;27.45;;;16.00;99.90;;;;;;5085297;28;20029;-59
2021/08/11 00:30:55;;;;;;;45.35;24.92;;;16.00;99.90;;;;;;5077468;28;20032;-59
2021/08/11 00:33:21;;;;;;;49.63;25.50;;;16.00;99.90;;;;;;5088953;28;20020;-61
2021/08/11 00:35:47;;;;;;;46.20;24.63;;;16.00;99.90;;;;;;5085095;28;20027;-60
2021/08/11 00:38:13;;;;;;;40.55;24.17;;;16.00;99.90;;;;;;5084512;28;20119;-60
2021/08/11 00:40:39;;;;;;;40.72;24.00;;;15.90;99.90;;;;;;5074423;28;20029;-59
2021/08/11 00:43:06;;;;;;;44.65;24.35;;;15.90;99.90;;;;;;5084088;28;20056;-61
2021/08/11 00:45:33;;;;;;;40.03;23.73;;;15.90;99.90;;;;;;5084652;28;20391;-60
2021/08/11 00:47:58;;;;;;;63.72;24.25;;;15.80;99.90;;;;;;5084802;28;20024;-58
2021/08/11 00:50:24;;;;;;;50.67;24.30;;;15.80;99.90;;;;;;5092853;28;20378;-59
2021/08/11 00:52:50;;;;;;;38.38;22.02;;;15.80;99.90;;;;;;5089677;28;20526;-59
2021/08/11 00:55:18;;;;;;;40.30;22.80;;;15.90;99.90;;;;;;5098987;28;20310;-59
2021/08/11 00:57:44;;;;;;;33.33;21.83;;;15.80;99.90;;;;;;5078015;28;20032;-60
2021/08/11 01:00:12;;;;;;;41.30;22.73;;;15.80;99.90;;;;;;5078103;28;20024;-59
2021/08/11 01:02:39;;;;;;;35.72;22.02;;;15.80;99.90;;;;;;5086591;28;20059;-59
2021/08/11 01:05:05;;;;;;;35.70;20.65;;;15.80;99.90;;;;;;5081326;28;21287;-59
2021/08/11 01:07:34;;;;;;;32.08;18.98;;;15.80;99.90;;;;;;5079755;28;20399;-59
2021/08/11 01:10:01;;;;;;;34.33;20.88;;;15.70;99.90;;;;;;5079597;28;20033;-58
2021/08/11 01:12:27;;;;;;;29.70;18.70;;;15.70;99.90;;;;;;5080339;28;20469;-59
2021/08/11 01:14:54;;;;;;;31.08;18.92;;;15.70;99.90;;;;;;5084588;28;20106;-59
2021/08/11 01:17:21;;;;;;;27.73;16.15;;;15.70;99.90;;;;;;5086747;28;20026;-60
2021/08/11 01:19:47;;;;;;;27.23;18.33;;;15.70;99.90;;;;;;5094440;28;20024;-60
2021/08/11 01:22:33;;;;;;;28.20;17.92;;;15.70;99.90;;;;;;5080550;28;20673;-58
2021/08/11 01:25:18;;;;;;;30.10;17.75;;;15.70;99.90;;;;;;5086286;28;20036;-61
2021/08/11 01:28:21;;;;;;;30.17;18.08;;;15.60;99.90;;;;;;5091760;28;20690;-60
2021/08/11 01:31:11;;;;;;;29.55;17.85;;;15.60;99.90;;;;;;5089825;28;20036;-61
2021/08/11 01:34:07;;;;;;;28.92;19.02;;;15.60;99.90;;;;;;5081893;28;20531;-57
2021/08/11 01:36:38;;;;;;;37.28;18.10;;;15.60;99.90;;;;;;5080393;28;20028;-58
2021/08/11 01:39:12;;;;;;;36.03;20.23;;;15.50;99.90;;;;;;5084259;28;20028;-58
2021/08/11 01:41:45;;;;;;;40.40;20.15;;;15.50;99.90;;;;;;5081354;28;20726;-59
2021/08/11 01:44:12;;;;;;;39.70;20.70;;;15.50;99.90;;;;;;5081401;28;20040;-61
2021/08/11 01:46:42;;;;;;;38.33;20.20;;;15.40;99.90;;;;;;5078617;28;20494;-55
2021/08/11 01:49:11;;;;;;;40.92;21.23;;;15.40;99.90;;;;;;5084026;28;20058;-58
2021/08/11 01:51:39;;;;;;;39.40;21.13;;;15.40;99.90;;;;;;5086045;28;20028;-59
2021/08/11 01:54:08;;;;;;;39.90;20.58;;;15.40;99.90;;;;;;5092093;28;20040;-61
2021/08/11 01:56:35;;;;;;;37.58;20.13;;;15.40;99.90;;;;;;5083948;28;20035;-61
2021/08/11 01:59:03;;;;;;;44.25;21.52;;;15.40;99.90;;;;;;5086572;28;20120;-60
2021/08/11 02:01:29;;;;;;;36.92;21.63;;;15.40;99.90;;;;;;5082819;28;20059;-61
2021/08/11 02:03:55;;;;;;;33.88;20.50;;;15.30;99.90;;;;;;5084363;28;20020;-59
2021/08/11 02:06:20;;;;;;;35.67;21.67;;;15.30;99.90;;;;;;5074328;28;20093;-61
2021/08/11 02:08:47;;;;;;;36.90;20.48;;;15.40;99.90;;;;;;5074404;28;20035;-61
2021/08/11 02:11:13;;;;;;;40.17;22.45;;;15.30;99.90;;;;;;5078154;28;20031;-61
2021/08/11 02:13:39;;;;;;;33.97;20.83;;;15.30;99.90;;;;;;5079515;28;20040;-59
2021/08/11 02:16:05;;;;;;;41.55;21.30;;;15.30;99.90;;;;;;5089489;28;20070;-60
2021/08/11 02:18:31;;;;;;;36.20;20.30;;;15.40;99.90;;;;;;5067002;28;20119;-56
2021/08/11 02:20:56;;;;;;;31.42;19.27;;;15.30;99.90;;;;;;5084019;28;20571;-59
2021/08/11 02:23:22;;;;;;;42.70;20.65;;;15.40;99.90;;;;;;5087113;28;20020;-62
2021/08/11 02:25:54;;;;;;;41.72;20.30;;;15.40;99.90;;;;;;5073781;28;20043;-59
2021/08/11 02:28:27;;;;;;;32.72;18.38;;;15.40;99.90;;;;;;5088405;28;20020;-58
2021/08/11 02:31:07;;;;;;;34.50;18.33;;;15.40;99.90;;;;;;5073285;28;20028;-61
2021/08/11 02:33:48;;;;;;;42.90;22.00;;;15.40;99.90;;;;;;5091861;28;20150;-59
2021/08/11 02:36:29;;;;;;;38.97;22.40;;;15.40;99.90;;;;;;5077210;28;20048;-61
2021/08/11 02:38:59;;;;;;;40.75;20.80;;;15.40;99.90;;;;;;5076847;28;20027;-61
2021/08/11 02:41:38;;;;;;;49.13;21.10;;;15.40;99.90;;;;;;5079812;28;20035;-60
2021/08/11 02:44:13;;;;;;;48.17;20.33;;;15.30;99.90;;;;;;5086003;28;20027;-59
2021/08/11 02:46:40;;;;;;;45.22;18.52;;;15.30;99.90;;;;;;5072575;28;20081;-59
2021/08/11 02:49:09;;;;;;;37.88;19.67;;;15.20;99.90;;;;;;5090370;28;20028;-60
2021/08/11 02:51:36;;;;;;;36.05;19.00;;;15.20;99.90;;;;;;5080568;28;20509;-59
2021/08/11 02:54:05;;;;;;;38.88;18.67;;;15.10;99.90;;;;;;5083215;28;20029;-60
2021/08/11 02:56:32;;;;;;;26.92;17.40;;;15.10;99.90;;;;;;5089270;28;20116;-61
2021/08/11 02:58:58;;;;;;;28.05;17.83;;;15.10;99.90;;;;;;5073583;28;20031;-59
2021/08/11 03:01:27;;;;;;;27.10;18.08;;;15.10;99.90;;;;;;5087875;28;20569;-58
2021/08/11 03:03:52;;;;;;;25.13;16.20;;;15.00;99.90;;;;;;5087026;28;20404;-59
2021/08/11 03:06:18;;;;;;;31.33;16.40;;;14.90;99.90;;;;;;5087748;28;20107;-59
2021/08/11 03:08:44;;;;;;;28.13;16.50;;;14.90;99.90;;;;;;5089346;28;20028;-59
2021/08/11 03:11:10;;;;;;;28.20;16.85;;;14.90;99.90;;;;;;5094915;28;20096;-59
2021/08/11 03:13:41;;;;;;;27.95;17.33;;;14.80;99.90;;;;;;5092115;27;20054;-60
2021/08/11 03:16:09;;;;;;;34.20;17.40;;;14.80;99.90;;;;;;5078077;28;20031;-60
2021/08/11 03:18:34;;;;;;;25.23;17.35;;;14.80;99.90;;;;;;5089223;28;20020;-59
2021/08/11 03:21:00;;;;;;;26.75;17.35;;;14.80;99.90;;;;;;5075678;28;20031;-61
2021/08/11 03:23:25;;;;;;;22.50;14.40;;;14.80;99.90;;;;;;5089499;28;20035;-61
2021/08/11 03:25:51;;;;;;;28.67;15.30;;;14.80;99.90;;;;;;5083431;28;20032;-60
2021/08/11 03:28:17;;;;;;;29.67;14.75;;;14.80;99.90;;;;;;5070790;28;20032;-57
2021/08/11 03:30:42;;;;;;;30.58;15.25;;;14.80;99.90;;;;;;5086167;28;20081;-60
2021/08/11 03:33:08;;;;;;;22.77;14.25;;;14.70;99.90;;;;;;5084734;28;20028;-61
2021/08/11 03:35:34;;;;;;;27.05;14.68;;;14.60;99.90;;;;;;5086428;28;20114;-60
2021/08/11 03:38:00;;;;;;;18.40;13.77;;;14.60;99.90;;;;;;5078825;28;20150;-59
2021/08/11 03:40:26;;;;;;;20.08;14.27;;;14.60;99.90;;;;;;5081253;28;20030;-59
2021/08/11 03:42:52;;;;;;;21.48;14.13;;;14.50;99.90;;;;;;5080820;28;20040;-58
2021/08/11 03:45:18;;;;;;;22.05;13.95;;;14.50;99.90;;;;;;5075342;28;20028;-57
2021/08/11 03:47:44;;;;;;;17.42;13.23;;;14.50;99.90;;;;;;5075660;28;20043;-58
2021/08/11 03:50:14;;;;;;;22.55;13.30;;;14.50;99.90;;;;;;5078389;28;20030;-58
2021/08/11 03:52:40;;;;;;;22.33;13.05;;;14.50;99.90;;;;;;5075718;28;20036;-60
2021/08/11 03:55:06;;;;;;;24.80;12.75;;;14.50;99.90;;;;;;5079321;28;20032;-59
2021/08/11 03:57:32;;;;;;;24.85;11.98;;;14.40;99.90;;;;;;5079095;28;20507;-54
2021/08/11 03:59:58;;;;;;;18.73;12.27;;;14.40;99.90;;;;;;5083299;28;20037;-58
2021/08/11 04:02:23;;;;;;;17.73;11.93;;;14.40;99.90;;;;;;5077223;28;20487;-57
2021/08/11 04:04:49;;;;;;;15.88;11.65;;;14.50;99.90;;;;;;5089083;28;20495;-59
2021/08/11 04:07:15;;;;;;;17.98;11.90;;;14.50;99.90;;;;;;5081047;28;20074;-58
2021/08/11 04:09:40;;;;;;;16.90;12.48;;;14.50;99.90;;;;;;5081771;28;20501;-58
2021/08/11 04:12:06;;;;;;;20.30;11.95;;;14.50;99.90;;;;;;5071462;28;20508;-59
2021/08/11 04:14:32;;;;;;;20.25;13.20;;;14.50;99.90;;;;;;5086723;28;20016;-60
2021/08/11 04:16:57;;;;;;;19.20;11.82;;;14.50;99.90;;;;;;5077715;28;20060;-61
2021/08/11 04:19:23;;;;;;;29.00;13.98;;;14.50;99.90;;;;;;5077198;28;20410;-59
2021/08/11 04:21:48;;;;;;;26.25;13.18;;;14.50;99.90;;;;;;5075080;28;20052;-60
2021/08/11 04:24:14;;;;;;;28.85;13.32;;;14.40;99.90;;;;;;5088275;28;20042;-58
2021/08/11 04:26:40;;;;;;;32.78;15.10;;;14.40;99.90;;;;;;5076695;28;20028;-60
2021/08/11 04:29:05;;;;;;;32.13;13.77;;;14.40;99.90;;;;;;5071769;28;20032;-61
2021/08/11 04:31:31;;;;;;;21.15;13.18;;;14.40;99.90;;;;;;5073333;28;20032;-61
2021/08/11 04:33:56;;;;;;;21.02;13.38;;;14.40;99.90;;;;;;5069855;28;20048;-59
2021/08/11 04:36:22;;;;;;;26.33;14.27;;;14.30;99.90;;;;;;5083632;28;20020;-61
2021/08/11 04:38:47;;;;;;;21.02;13.70;;;14.30;99.90;;;;;;5077671;28;20107;-59
2021/08/11 04:41:14;;;;;;;25.60;13.77;;;14.30;99.90;;;;;;5079804;28;20020;-59
2021/08/11 04:43:40;;;;;;;20.60;13.23;;;14.20;99.90;;;;;;5070116;28;20032;-59
2021/08/11 04:46:06;;;;;;;22.88;13.10;;;14.20;99.90;;;;;;5077876;28;20028;-61
2021/08/11 04:48:32;;;;;;;17.02;11.82;;;14.20;99.90;;;;;;5083162;28;20074;-59
2021/08/11 04:50:57;;;;;;;28.83;13.20;;;14.30;99.90;;;;;;5070325;28;20036;-60
2021/08/11 04:53:23;;;;;;;16.83;12.00;;;14.30;99.90;;;;;;5070739;28;20036;-59
2021/08/11 04:55:50;;;;;;;18.98;12.98;;;14.30;99.90;;;;;;5084171;28;20036;-60
2021/08/11 04:58:15;;;;;;;23.17;13.38;;;14.30;99.90;;;;;;5084756;28;20111;-59
2021/08/11 05:00:41;;;;;;;26.55;12.95;;;14.30;99.90;;;;;;5080426;28;20141;-61
2021/08/11 05:03:07;;;;;;;19.02;12.40;;;14.30;99.90;;;;;;5073476;28;20029;-60
2021/08/11 05:05:32;;;;;;;24.45;12.90;;;14.40;99.90;;;;;;5084155;28;20024;-61
2021/08/11 05:07:58;;;;;;;20.88;13.80;;;14.40;99.90;;;;;;5089400;28;20019;-59
2021/08/11 05:10:23;;;;;;;27.75;14.82;;;14.40;99.90;;;;;;5082497;28;20040;-56
2021/08/11 05:12:49;;;;;;;17.88;13.25;;;14.50;99.90;;;;;;5076657;28;20060;-57
2021/08/11 05:15:15;;;;;;;22.73;14.07;;;14.60;99.90;;;;;;5087168;28;20335;-60
2021/08/11 05:17:40;;;;;;;35.53;15.48;;;14.60;99.90;;;;;;5089806;28;20476;-60
2021/08/11 05:20:07;;;;;;;46.63;17.08;;;14.70;99.90;;;;;;5086918;28;20074;-59
2021/08/11 05:22:32;;;;;;;28.73;15.23;;;14.80;99.90;;;;;;5082337;28;20021;-60
2021/08/11 05:24:58;;;;;;;23.20;14.98;;;14.80;99.90;;;;;;5082537;28;20047;-60
2021/08/11 05:27:25;;;;;;;30.58;15.85;;;14.90;99.90;;;;;;5084646;28;20023;-60
2021/08/11 05:29:50;;;;;;;29.48;16.63;;;14.90;99.90;;;;;;5076803;28;20024;-59
2021/08/11 05:32:16;;;;;;;34.22;16.65;;;15.00;99.90;;;;;;5081696;28;20912;-61
2021/08/11 05:34:43;;;;;;;37.33;17.90;;;15.00;99.90;;;;;;5086105;28;20099;-62
2021/08/11 05:37:09;;;;;;;21.20;14.38;;;15.10;99.90;;;;;;5078768;28;20454;-63
2021/08/11 05:39:35;;;;;;;27.02;16.23;;;15.20;99.90;;;;;;5089196;28;20107;-63
2021/08/11 05:42:01;;;;;;;30.10;17.85;;;15.20;99.90;;;;;;5086471;28;20120;-64
2021/08/11 05:44:27;;;;;;;43.60;17.67;;;15.30;99.90;;;;;;5065683;28;20030;-63
2021/08/11 05:46:52;;;;;;;27.40;15.65;;;15.40;99.90;;;;;;5072910;28;20035;-64
2021/08/11 05:49:18;;;;;;;29.23;16.08;;;15.50;99.90;;;;;;5091124;28;20028;-64
2021/08/11 05:51:45;;;;;;;28.02;17.75;;;15.60;99.90;;;;;;5083548;28;20032;-64
2021/08/11 05:54:10;;;;;;;39.97;19.52;;;15.70;99.90;;;;;;5081874;28;20462;-63
2021/08/11 05:56:36;;;;;;;35.05;20.08;;;15.80;99.90;;;;;;5086042;28;20024;-63
2021/08/11 05:59:02;;;;;;;33.72;20.70;;;15.80;99.90;;;;;;5081238;28;20551;-63
2021/08/11 06:01:27;;;;;;;42.88;21.15;;;15.80;99.90;;;;;;5083401;28;20016;-64
2021/08/11 06:03:57;;;;;;;34.80;21.30;;;15.80;99.90;;;;;;5082973;28;20085;-64
2021/08/11 06:06:27;;;;;;;33.13;22.42;;;15.80;99.90;;;;;;5081957;28;20046;-64
2021/08/11 06:08:53;;;;;;;35.90;21.50;;;15.90;99.90;;;;;;5069212;28;20083;-63
2021/08/11 06:11:19;;;;;;;42.22;24.50;;;15.90;99.90;;;;;;5066727;28;20043;-63
2021/08/11 06:13:45;;;;;;;41.45;25.08;;;16.00;99.90;;;;;;5079659;28;20036;-63
2021/08/11 06:16:11;;;;;;;42.85;27.17;;;16.00;99.90;;;;;;5075693;28;20117;-63
2021/08/11 06:18:36;;;;;;;48.53;27.63;;;16.00;99.90;;;;;;5073444;28;20072;-63
2021/08/11 06:21:02;;;;;;;46.75;29.33;;;16.10;99.90;;;;;;5075217;28;20021;-63
2021/08/11 06:23:28;;;;;;;50.72;29.52;;;16.10;99.90;;;;;;5074707;28;20044;-63
2021/08/11 06:25:53;;;;;;;43.00;28.20;;;16.10;99.90;;;;;;5079873;28;20494;-63
2021/08/11 06:28:19;;;;;;;48.17;29.23;;;16.20;99.90;;;;;;5086085;28;20032;-64
2021/08/11 06:30:44;;;;;;;47.15;28.38;;;16.20;99.90;;;;;;5079625;28;20038;-64
2021/08/11 06:33:10;;;;;;;43.45;27.98;;;16.30;99.90;;;;;;5087474;28;20070;-63
2021/08/11 06:35:35;;;;;;;53.42;29.27;;;16.30;99.90;;;;;;5073494;28;20494;-64
2021/08/11 06:38:01;;;;;;;54.80;31.92;;;16.40;99.90;;;;;;5089110;28;20481;-63
2021/08/11 06:40:28;;;;;;;44.67;29.13;;;16.40;99.90;;;;;;5084877;28;20025;-63
2021/08/11 06:42:53;;;;;;;48.22;30.65;;;16.50;99.90;;;;;;5076754;28;20187;-64
2021/08/11 06:45:19;;;;;;;44.03;29.63;;;16.50;99.90;;;;;;5081689;28;20024;-64
2021/08/11 06:47:44;;;;;;;47.55;29.38;;;16.50;99.90;;;;;;5081567;28;20032;-64
2021/08/11 06:50:12;;;;;;;43.63;29.13;;;16.60;99.90;;;;;;5082945;28;20030;-64
2021/08/11 06:52:38;;;;;;;44.60;29.33;;;16.60;99.90;;;;;;5088141;28;20066;-63
2021/08/11 06:55:09;;;;;;;51.97;33.35;;;16.60;99.90;;;;;;5087154;28;20043;-63
2021/08/11 06:57:34;;;;;;;54.10;32.65;;;16.70;99.90;;;;;;5086704;28;20494;-65
2021/08/11 07:00:00;;;;;;;45.47;29.95;;;16.70;99.90;;;;;;5094197;28;20055;-65
2021/08/11 07:02:26;;;;;;;49.15;31.33;;;16.80;99.90;;;;;;5072122;28;20095;-61
2021/08/11 07:04:52;;;;;;;49.58;33.28;;;16.90;99.90;;;;;;5073133;28;20107;-62
2021/08/11 07:07:17;;;;;;;56.80;35.28;;;16.90;99.90;;;;;;5076075;28;20024;-63
2021/08/11 07:09:43;;;;;;;52.88;35.22;;;17.00;99.90;;;;;;5087860;28;20116;-63
2021/08/11 07:12:09;;;;;;;55.08;35.13;;;17.00;99.90;;;;;;5078744;28;20102;-64
2021/08/11 07:14:35;;;;;;;49.22;33.83;;;17.00;99.90;;;;;;5086514;28;20068;-61
2021/08/11 07:17:00;;;;;;;48.42;34.00;;;17.00;99.90;;;;;;5074509;28;20025;-62
2021/08/11 07:19:26;;;;;;;51.88;33.50;;;17.10;99.90;;;;;;5079932;28;20021;-63
2021/08/11 07:21:51;;;;;;;51.53;35.58;;;17.10;99.90;;;;;;5089047;28;20016;-64
2021/08/11 07:24:18;;;;;;;51.83;35.42;;;17.20;99.90;;;;;;5085254;28;20103;-61
2021/08/11 07:26:43;;;;;;;57.58;40.08;;;17.20;99.90;;;;;;5090581;28;20027;-65
2021/08/11 07:29:09;;;;;;;57.42;37.50;;;17.30;99.90;;;;;;5082723;28;20040;-62
2021/08/11 07:31:35;;;;;;;57.08;40.40;;;17.40;99.90;;;;;;5087290;28;20036;-63
2021/08/11 07:34:00;;;;;;;52.83;38.08;;;17.60;99.90;;;;;;5078595;28;20032;-63
2021/08/11 07:36:26;;;;;;;54.15;38.05;;;17.60;99.90;;;;;;5072298;28;20033;-63
2021/08/11 07:38:51;;;;;;;48.47;34.55;;;17.70;99.90;;;;;;5082693;28;20024;-61
2021/08/11 07:41:17;;;;;;;58.67;40.85;;;17.80;99.90;;;;;;5075953;28;20020;-64
2021/08/11 07:43:42;;;;;;;56.42;40.10;;;17.80;99.90;;;;;;5085541;28;20028;-63
2021/08/11 07:46:08;;;;;;;56.42;40.38;;;17.80;99.90;;;;;;5084277;28;20051;-63
2021/08/11 07:48:34;;;;;;;51.40;36.63;;;17.80;99.90;;;;;;5081397;28;20450;-63
2021/08/11 07:51:00;;;;;;;60.47;40.63;;;17.80;99.90;;;;;;5082323;28;20518;-63
2021/08/11 07:53:25;;;;;;;56.65;38.10;;;17.70;99.90;;;;;;5079571;28;20048;-63
2021/08/11 07:55:51;;;;;;;57.75;39.88;;;17.80;99.90;;;;;;5082287;28;20424;-62
2021/08/11 07:58:16;;;;;;;64.55;43.67;;;17.80;99.90;;;;;;5090694;28;20051;-64
2021/08/11 08:00:42;;;;;;;58.10;42.05;;;17.90;99.90;;;;;;5075934;28;20029;-64
2021/08/11 08:03:07;;;;;;;56.58;38.85;;;18.00;99.90;;;;;;5076330;28;20013;-64
2021/08/11 08:05:35;;;;;;;61.45;41.33;;;18.20;99.90;;;;;;5085688;28;20024;-63
2021/08/11 08:08:00;;;;;;;50.78;35.50;;;18.30;99.90;;;;;;5085571;28;20040;-63
2021/08/11 08:10:26;;;;;;;51.63;36.17;;;18.40;99.90;;;;;;5079175;28;20439;-63
2021/08/11 08:12:51;;;;;;;46.47;33.92;;;18.40;99.90;;;;;;5072487;28;20032;-62
2021/08/11 08:15:17;;;;;;;46.22;34.05;;;18.40;99.90;;;;;;5072076;28;20029;-64
2021/08/11 08:17:43;;;;;;;45.78;29.83;;;18.40;99.90;;;;;;5084305;28;20020;-62
2021/08/11 08:20:09;;;;;;;39.42;31.00;;;18.40;99.90;;;;;;5089411;28;20027;-63
2021/08/11 08:22:35;;;;;;;40.47;31.83;;;18.40;99.90;;;;;;5083822;28;20012;-64
2021/08/11 08:25:02;;;;;;;42.72;31.17;;;18.60;99.90;;;;;;5077958;28;20028;-64
2021/08/11 08:27:27;;;;;;;43.60;30.73;;;18.50;99.90;;;;;;5075872;28;20015;-64
2021/08/11 08:29:54;;;;;;;43.08;30.95;;;18.60;99.90;;;;;;5074464;28;20225;-64
2021/08/11 08:32:20;;;;;;;43.70;28.83;;;18.60;99.90;;;;;;5074749;28;20422;-63
2021/08/11 08:34:46;;;;;;;43.17;27.77;;;18.60;99.90;;;;;;5086893;28;20028;-64
2021/08/11 08:37:11;;;;;;;35.88;25.42;;;18.70;99.90;;;;;;5087150;28;20024;-64
2021/08/11 08:39:37;;;;;;;35.95;25.65;;;18.70;99.90;;;;;;5074049;28;20394;-64
2021/08/11 08:42:04;;;;;;;35.97;24.85;;;18.80;99.90;;;;;;5077194;28;20074;-64
2021/08/11 08:44:30;;;;;;;29.52;21.15;;;18.90;99.90;;;;;;5078980;28;20030;-64
2021/08/11 08:46:56;;;;;;;30.73;23.50;;;18.90;99.90;;;;;;5086072;28;20036;-63
2021/08/11 08:49:22;;;;;;;27.83;21.83;;;19.00;99.90;;;;;;5092265;28;20051;-64
2021/08/11 08:51:49;;;;;;;31.17;21.02;;;19.10;99.90;;;;;;5081485;28;20628;-63
2021/08/11 08:54:27;;;;;;;25.83;19.55;;;19.00;99.90;;;;;;5082520;28;20118;-64
2021/08/11 08:56:52;;;;;;;28.92;22.02;;;19.10;99.90;;;;;;5072673;28;20036;-64
2021/08/11 08:59:18;;;;;;;29.50;20.67;;;19.10;99.90;;;;;;5077162;28;20021;-63
2021/08/11 09:01:43;;;;;;;30.27;19.83;;;19.10;99.90;;;;;;5082600;28;20095;-64
2021/08/11 09:04:09;;;;;;;25.55;18.73;;;19.10;99.90;;;;;;5079058;28;20372;-65
2021/08/11 09:06:36;;;;;;;30.25;17.45;;;19.10;99.90;;;;;;5078104;28;20482;-62
2021/08/11 09:09:08;;;;;;;35.47;19.63;;;19.20;99.90;;;;;;5073749;28;20029;-63
2021/08/11 09:11:35;;;;;;;34.60;19.02;;;19.40;99.90;;;;;;5085246;28;20028;-64
2021/08/11 09:14:22;;;;;;;31.83;19.15;;;19.50;99.90;;;;;;5084926;28;20028;-63
2021/08/11 09:16:50;;;;;;;45.05;21.63;;;19.50;99.90;;;;;;5083051;28;20020;-64
2021/08/11 09:19:16;;;;;;;39.15;20.95;;;19.60;99.90;;;;;;5094400;28;20013;-62
2021/08/11 09:22:05;;;;;;;28.60;17.65;;;19.80;99.90;;;;;;5092716;28;20024;-65
2021/08/11 09:24:34;;;;;;;21.52;14.60;;;19.90;99.90;;;;;;5092589;28;20016;-64
2021/08/11 09:27:20;;;;;;;17.80;11.70;;;20.10;99.90;;;;;;5087407;28;20059;-64
2021/08/11 09:30:01;;;;;;;14.35;9.98;;;20.30;99.90;;;;;;5092320;28;20116;-64
2021/08/11 09:32:27;;;;;;;20.50;11.60;;;20.50;99.90;;;;;;5078856;28;20033;-65
2021/08/11 09:34:54;;;;;;;15.02;9.60;;;20.60;99.90;;;;;;5082894;28;20035;-64
2021/08/11 09:37:39;;;;;;;14.80;10.88;;;20.80;99.90;;;;;;5089107;28;20024;-64
2021/08/11 09:40:10;;;;;;;21.35;10.43;;;21.20;99.90;;;;;;5087723;28;20596;-64
2021/08/11 09:42:37;;;;;;;14.13;9.88;;;21.20;99.90;;;;;;5081775;28;20052;-64
2021/08/11 09:45:03;;;;;;;13.18;10.05;;;21.10;99.90;;;;;;5083497;28;20027;-63
2021/08/11 09:47:29;;;;;;;13.65;10.00;;;21.00;99.90;;;;;;5077259;28;20017;-65
2021/08/11 09:50:06;;;;;;;12.30;9.07;;;21.10;99.90;;;;;;5093588;28;20040;-63
2021/08/11 09:52:49;;;;;;;14.50;9.63;;;21.10;99.90;;;;;;5077071;28;20044;-64
2021/08/11 09:55:15;;;;;;;15.77;9.10;;;21.10;99.90;;;;;;5086217;28;20367;-63
2021/08/11 09:57:41;;;;;;;17.45;10.48;;;21.10;99.90;;;;;;5084183;28;20012;-63
2021/08/11 10:00:08;;;;;;;12.07;8.15;;;21.20;99.90;;;;;;5082525;28;20020;-64
2021/08/11 10:02:33;;;;;;;16.55;8.80;;;21.30;99.90;;;;;;5097225;28;20502;-65
2021/08/11 10:04:59;;;;;;;12.88;8.85;;;21.50;99.90;;;;;;5083151;28;20035;-64
2021/08/11 10:07:24;;;;;;;11.32;8.23;;;21.60;99.90;;;;;;5092202;28;20020;-63
2021/08/11 10:10:19;;;;;;;11.68;7.47;;;21.70;99.90;;;;;;5083231;28;20020;-63
2021/08/11 10:12:47;;;;;;;;;;;22.00;99.90;;;;;;5078333;28;20047;-64
2021/08/11 10:15:14;;;;;;;13.65;8.65;;;22.20;99.90;;;;;;5083337;28;19930;-64
2021/08/11 10:17:42;;;;;;;12.52;7.95;;;22.30;99.90;;;;;;5077688;28;20031;-66
2021/08/11 10:20:09;;;;;;;12.55;7.97;;;22.30;99.90;;;;;;5075315;28;20024;-64
2021/08/11 10:22:39;;;;;;;11.35;7.30;;;22.40;99.90;;;;;;5081972;28;20020;-65
2021/08/11 10:25:05;;;;;;;13.68;8.02;;;22.40;99.90;;;;;;5082499;28;20031;-63
2021/08/11 10:27:31;;;;;;;15.57;8.05;;;22.40;99.90;;;;;;5088581;28;20023;-64
2021/08/11 10:29:57;;;;;;;15.25;6.93;;;22.40;99.90;;;;;;5087135;28;20024;-65
2021/08/11 10:32:24;;;;;;;11.65;6.80;;;22.60;99.90;;;;;;5098940;28;20109;-63
2021/08/11 10:34:52;;;;;;;10.65;6.38;;;22.70;99.90;;;;;;5084193;28;20024;-64
2021/08/11 10:37:18;;;;;;;9.50;6.78;;;22.90;99.90;;;;;;5085051;28;20028;-63
2021/08/11 10:39:43;;;;;;;9.93;5.53;;;22.90;99.90;;;;;;5091585;28;20051;-65
2021/08/11 10:42:16;;;;;;;12.07;7.22;;;22.90;99.90;;;;;;5089639;28;20028;-64
2021/08/11 10:44:46;;;;;;;9.88;6.35;;;22.90;99.90;;;;;;5087037;28;20024;-63
2021/08/11 10:47:13;;;;;;;10.57;6.40;;;22.50;99.90;;;;;;5086527;28;20121;-61
2021/08/11 10:49:56;;;;;;;10.35;5.55;;;22.60;99.90;;;;;;5094187;28;20430;-62
2021/08/11 10:52:22;;;;;;;19.50;7.80;;;22.60;99.90;;;;;;5082772;28;20029;-62
2021/08/11 10:54:51;;;;;;;12.30;6.72;;;22.50;99.90;;;;;;5078789;28;20043;-63
2021/08/11 10:57:39;;;;;;;12.73;7.70;;;22.30;99.90;;;;;;5081937;28;20035;-63
2021/08/11 11:00:21;;;;;;;13.07;6.82;;;22.20;99.90;;;;;;5084717;28;20019;-63
2021/08/11 11:02:52;;;;;;;19.02;6.07;;;22.20;99.90;;;;;;5083603;28;20016;-63
2021/08/11 11:05:20;;;;;;;12.57;5.90;;;22.60;99.90;;;;;;5089481;28;20024;-62
2021/08/11 11:08:14;;;;;;;9.05;5.88;;;22.80;99.90;;;;;;5081172;28;20028;-63
2021/08/11 11:10:45;;;;;;;10.17;5.63;;;23.00;99.90;;;;;;5087731;28;20024;-62
2021/08/11 11:13:34;;;;;;;10.52;4.80;;;23.30;99.90;;;;;;5085559;28;20082;-63
2021/08/11 11:16:03;;;;;;;15.48;6.68;;;23.70;99.90;;;;;;5083690;28;20494;-62
2021/08/11 11:18:29;;;;;;;11.38;5.65;;;23.60;99.90;;;;;;5079499;28;20017;-64
2021/08/11 11:20:58;;;;;;;8.20;5.35;;;23.70;99.90;;;;;;5089493;28;20088;-60
2021/08/11 11:23:39;;;;;;;12.75;5.80;;;24.00;99.90;;;;;;5087620;28;20383;-62
2021/08/11 11:26:10;;;;;;;15.00;5.82;;;24.20;99.90;;;;;;5087225;28;20108;-61
2021/08/11 11:29:04;;;;;;;11.75;4.35;;;24.00;99.90;;;;;;5085295;28;20031;-63
2021/08/11 11:32:00;;;;;;;10.90;5.47;;;23.90;99.90;;;;;;5085227;28;20533;-59
2021/08/11 11:34:36;;;;;;;13.15;5.47;;;23.50;99.90;;;;;;5068882;28;20047;-61
2021/08/11 11:37:02;;;;;;;7.10;4.80;;;23.30;99.90;;;;;;5086509;28;20035;-60
2021/08/11 11:39:33;;;;;;;10.40;5.18;;;23.20;99.90;;;;;;5087031;28;20638;-60
2021/08/11 11:42:08;;;;;;;11.18;5.40;;;23.00;99.90;;;;;;5085263;28;20032;-58
2021/08/11 11:44:47;;;;;;;43.17;7.35;;;22.80;99.90;;;;;;5081307;28;20048;-58
2021/08/11 11:47:15;;;;;;;9.82;4.72;;;22.80;99.90;;;;;;5085890;28;20027;-60
2021/08/11 11:49:41;;;;;;;10.80;5.10;;;22.90;99.90;;;;;;5084703;28;20103;-61
2021/08/11 11:52:18;;;;;;;11.05;4.78;;;22.90;99.90;;;;;;5085052;28;20050;-60
2021/08/11 11:54:46;;;;;;;6.25;3.88;;;23.00;99.90;;;;;;5085422;28;20104;-61
2021/08/11 11:57:14;;;;;;;10.63;3.88;;;23.00;99.90;;;;;;5086617;28;20503;-55
2021/08/11 11:59:47;;;;;;;7.85;3.88;;;23.10;99.90;;;;;;5084183;28;20043;-59
2021/08/11 12:02:22;;;;;;;6.70;4.18;;;23.40;99.90;;;;;;5082515;28;20055;-61
2021/08/11 12:04:59;;;;;;;5.60;3.65;;;23.80;99.90;;;;;;5086587;28;20097;-61
2021/08/11 12:07:35;;;;;;;7.32;4.53;;;24.10;99.90;;;;;;5082383;28;20032;-60
2021/08/11 12:10:03;;;;;;;5.60;4.00;;;24.40;99.90;;;;;;5085844;28;20040;-57
2021/08/11 12:12:28;;;;;;;8.40;4.20;;;24.30;99.90;;;;;;5086708;28;20485;-59
2021/08/11 12:15:20;;;;;;;5.95;4.03;;;24.20;99.90;;;;;;5081244;28;20111;-59
2021/08/11 12:17:47;;;;;;;7.78;3.92;;;24.30;99.90;;;;;;5082997;28;20506;-60
2021/08/11 12:20:32;;;;;;;6.00;3.70;;;24.40;99.90;;;;;;5085974;28;20036;-58
2021/08/11 12:23:23;;;;;;;8.45;4.32;;;24.10;99.90;;;;;;5086951;28;20077;-58
2021/08/11 12:25:52;;;;;;;8.48;4.50;;;23.90;99.90;;;;;;5086298;28;20028;-58
2021/08/11 12:28:26;;;;;;;5.90;4.15;;;23.70;99.90;;;;;;5086739;28;20081;-57
2021/08/11 12:31:02;;;;;;;7.65;5.00;;;23.50;99.90;;;;;;5079951;28;20028;-63
2021/08/11 12:33:35;;;;;;;8.40;4.18;;;23.50;99.90;;;;;;5087638;28;20063;-62
2021/08/11 12:36:00;;;;;;;6.25;4.15;;;24.00;99.90;;;;;;5085987;28;20043;-63
2021/08/11 12:38:38;;;;;;;7.47;3.80;;;24.10;99.90;;;;;;5088038;28;20392;-62